createdAt,value
2022-11-18T00:01:22.492Z,57.31
2022-11-18T00:03:51.605Z,58.48
2022-11-18T00:06:21.931Z,59.44
2022-11-18T00:08:50.442Z,60.26
2022-11-18T00:11:40.035Z,61.05
2022-11-18T00:14:19.471Z,61.36
2022-11-18T00:16:54.984Z,61.52
2022-11-18T00:19:34.506Z,67.41
2022-11-18T00:22:03.327Z,72.84
2022-11-18T00:24:31.743Z,62.97
2022-11-18T00:26:59.616Z,55.55
2022-11-18T00:29:28.490Z,52.05
2022-11-18T00:31:57.411Z,53.38
2022-11-18T00:34:26.091Z,54.91
2022-11-18T00:36:53.827Z,56.52
2022-11-18T00:39:22.063Z,57.48
2022-11-18T00:42:08.477Z,58.58
2022-11-18T00:44:37.021Z,58.60
2022-11-18T00:47:05.274Z,60.17
2022-11-18T00:49:33.161Z,61.31
2022-11-18T00:52:01.340Z,65.14
2022-11-18T00:54:29.260Z,71.22
2022-11-18T00:56:56.968Z,63.21
2022-11-18T00:59:24.809Z,55.70
2022-11-18T01:01:52.651Z,52.90
2022-11-18T01:04:20.487Z,53.29
2022-11-18T01:06:48.411Z,54.27
2022-11-18T01:09:16.495Z,56.08
2022-11-18T01:12:02.910Z,57.62
2022-11-18T01:14:30.823Z,58.23
2022-11-18T01:16:58.624Z,59.25
2022-11-18T01:19:26.479Z,59.77
2022-11-18T01:21:56.454Z,60.47
2022-11-18T01:24:24.167Z,61.35
2022-11-18T01:26:51.934Z,65.58
2022-11-18T01:29:20.015Z,70.51
2022-11-18T01:32:16.890Z,65.23
2022-11-18T01:34:35.832Z,58.41
2022-11-18T01:37:03.703Z,53.57
2022-11-18T01:39:31.843Z,53.27
2022-11-18T01:41:59.669Z,54.39
2022-11-18T01:45:02.353Z,55.59
2022-11-18T01:47:35.635Z,56.02
2022-11-18T01:50:05.201Z,56.59
2022-11-18T01:52:35.048Z,57.22
2022-11-18T01:55:06.188Z,58.30
2022-11-18T01:57:34.416Z,59.53
2022-11-18T02:00:04.876Z,59.94
2022-11-18T02:02:37.722Z,60.44
2022-11-18T02:05:08.361Z,61.80
2022-11-18T02:07:43.360Z,66.21
2022-11-18T02:10:20.991Z,71.14
2022-11-18T02:12:51.024Z,64.99
2022-11-18T02:15:44.476Z,60.25
2022-11-18T02:18:30.967Z,53.99
2022-11-18T02:21:28.413Z,51.90
2022-11-18T02:24:25.009Z,52.58
2022-11-18T02:27:33.403Z,53.81
2022-11-18T02:30:08.769Z,54.71
2022-11-18T02:32:51.706Z,56.32
2022-11-18T02:35:28.165Z,58.01
2022-11-18T02:38:04.978Z,59.96
2022-11-18T02:40:37.062Z,60.61
2022-11-18T02:43:08.853Z,61.80
2022-11-18T02:45:42.271Z,66.69
2022-11-18T02:48:13.232Z,68.88
2022-11-18T02:50:43.591Z,64.00
2022-11-18T02:53:14.976Z,60.80
2022-11-18T02:55:44.377Z,54.83
2022-11-18T02:58:14.496Z,51.71
2022-11-18T03:00:42.279Z,51.69
2022-11-18T03:03:30.082Z,52.15
2022-11-18T03:06:04.621Z,53.23
2022-11-18T03:08:39.773Z,54.02
2022-11-18T03:11:20.967Z,55.91
2022-11-18T03:14:16.073Z,56.98
2022-11-18T03:17:00.660Z,57.56
2022-11-18T03:19:53.193Z,58.59
2022-11-18T03:22:23.903Z,59.20
2022-11-18T03:25:06.017Z,59.71
2022-11-18T03:27:41.297Z,61.29
2022-11-18T03:30:13.525Z,62.70
2022-11-18T03:32:45.742Z,69.76
2022-11-18T03:35:19.899Z,67.55
2022-11-18T03:37:52.350Z,61.68
2022-11-18T03:40:29.758Z,56.27
2022-11-18T03:43:09.956Z,53.02
2022-11-18T03:45:46.228Z,53.05
2022-11-18T03:48:20.221Z,53.74
2022-11-18T03:51:11.357Z,54.60
2022-11-18T03:53:47.905Z,56.67
2022-11-18T03:56:28.429Z,59.03
2022-11-18T03:58:59.487Z,59.79
2022-11-18T04:01:42.618Z,61.38
2022-11-18T04:04:11.656Z,66.24
2022-11-18T04:06:46.742Z,68.38
2022-11-18T04:09:23.901Z,64.70
2022-11-18T04:12:03.450Z,61.58
2022-11-18T04:14:38.596Z,57.42
2022-11-18T04:17:19.879Z,54.15
2022-11-18T04:19:48.062Z,55.26
2022-11-18T04:22:17.886Z,57.24
2022-11-18T04:24:46.154Z,57.70
2022-11-18T04:27:14.075Z,58.10
2022-11-18T04:29:41.765Z,60.79
2022-11-18T04:32:09.516Z,61.28
2022-11-18T04:34:37.324Z,62.06
2022-11-18T04:37:05.137Z,66.05
2022-11-18T04:39:32.947Z,65.83
2022-11-18T04:42:00.712Z,61.97
2022-11-18T04:44:30.931Z,58.42
2022-11-18T04:47:01.223Z,57.35
2022-11-18T04:49:29.698Z,59.68
2022-11-18T04:51:57.828Z,60.85
2022-11-18T04:54:26.949Z,64.91
2022-11-18T04:56:55.366Z,62.75
2022-11-18T04:59:29.458Z,59.16
2022-11-18T05:01:58.445Z,55.44
2022-11-18T05:04:30.091Z,55.05
2022-11-18T05:06:59.001Z,57.30
2022-11-18T05:09:31.829Z,59.73
2022-11-18T05:12:19.813Z,59.92
2022-11-18T05:14:50.359Z,63.45
2022-11-18T05:17:19.252Z,68.25
2022-11-18T05:19:47.149Z,66.70
2022-11-18T05:22:15.661Z,61.22
2022-11-18T05:24:43.475Z,54.62
2022-11-18T05:27:12.681Z,52.07
2022-11-18T05:29:41.433Z,53.67
2022-11-18T05:32:09.267Z,56.80
2022-11-18T05:34:37.176Z,59.85
2022-11-18T05:37:04.955Z,60.38
2022-11-18T05:39:33.892Z,61.63
2022-11-18T05:42:23.111Z,66.78
2022-11-18T05:44:57.833Z,65.88
2022-11-18T05:47:27.081Z,61.06
2022-11-18T05:49:54.899Z,55.43
2022-11-18T05:52:22.657Z,52.55
2022-11-18T05:54:51.596Z,53.33
2022-11-18T05:57:19.411Z,56.43
2022-11-18T05:59:47.355Z,57.83
2022-11-18T06:02:22.281Z,58.96
2022-11-18T06:05:02.871Z,60.85
2022-11-18T06:07:43.031Z,64.51
2022-11-18T06:10:18.201Z,68.08
2022-11-18T06:12:49.342Z,63.35
2022-11-18T06:15:27.277Z,57.90
2022-11-18T06:18:07.195Z,52.12
2022-11-18T06:20:38.144Z,51.88
2022-11-18T06:23:06.211Z,53.75
2022-11-18T06:25:37.678Z,56.08
2022-11-18T06:28:05.566Z,58.94
2022-11-18T06:30:33.340Z,61.37
2022-11-18T06:33:01.075Z,65.44
2022-11-18T06:35:28.793Z,66.73
2022-11-18T06:37:57.255Z,62.40
2022-11-18T06:40:24.992Z,53.38
2022-11-18T06:43:11.236Z,50.16
2022-11-18T06:45:39.027Z,50.47
2022-11-18T06:48:07.202Z,54.24
2022-11-18T06:50:35.072Z,56.11
2022-11-18T06:53:02.838Z,56.80
2022-11-18T06:55:31.073Z,58.89
2022-11-18T06:57:58.866Z,61.44
2022-11-18T07:00:26.669Z,61.71
2022-11-18T07:02:54.417Z,66.80
2022-11-18T07:05:22.168Z,68.67
2022-11-18T07:07:50.071Z,61.17
2022-11-18T07:10:17.868Z,56.31
2022-11-18T07:12:45.750Z,52.92
2022-11-18T07:15:14.454Z,52.98
2022-11-18T07:17:42.227Z,53.28
2022-11-18T07:20:10.535Z,54.70
2022-11-18T07:22:38.341Z,58.15
2022-11-18T07:25:06.274Z,60.37
2022-11-18T07:27:34.041Z,59.83
2022-11-18T07:30:01.767Z,59.92
2022-11-18T07:32:29.554Z,60.12
2022-11-18T07:34:57.304Z,61.09
2022-11-18T07:37:25.148Z,66.89
2022-11-18T07:39:53.113Z,70.77
2022-11-18T07:42:20.949Z,61.70
2022-11-18T07:44:48.702Z,54.60
2022-11-18T07:47:16.513Z,51.57
2022-11-18T07:49:44.385Z,52.20
2022-11-18T07:52:12.114Z,53.14
2022-11-18T07:54:39.994Z,54.80
2022-11-18T07:57:08.029Z,56.04
2022-11-18T07:59:35.887Z,56.58
2022-11-18T08:02:03.739Z,57.95
2022-11-18T08:04:31.867Z,58.81
2022-11-18T08:06:59.641Z,59.27
2022-11-18T08:09:27.382Z,59.47
2022-11-18T08:11:55.106Z,60.30
2022-11-18T08:14:24.230Z,61.07
2022-11-18T08:16:52.027Z,65.10
2022-11-18T08:19:20.115Z,69.56
2022-11-18T08:21:48.124Z,66.67
2022-11-18T08:24:15.974Z,63.65
2022-11-18T08:26:43.715Z,57.46
2022-11-18T08:29:11.533Z,54.53
2022-11-18T08:31:39.340Z,54.23
2022-11-18T08:34:07.932Z,54.48
2022-11-18T08:36:38.093Z,56.88
2022-11-18T08:39:08.952Z,57.41
2022-11-18T08:41:38.390Z,58.24
2022-11-18T08:44:08.174Z,58.97
2022-11-18T08:46:35.955Z,59.51
2022-11-18T08:49:04.125Z,60.10
2022-11-18T08:51:32.077Z,60.96
2022-11-18T08:53:59.988Z,61.46
2022-11-18T08:56:28.017Z,62.05
2022-11-18T08:58:56.564Z,66.17
2022-11-18T09:01:24.372Z,70.26
2022-11-18T09:03:52.705Z,67.17
2022-11-18T09:06:24.303Z,60.95
2022-11-18T09:08:52.958Z,56.68
2022-11-18T09:11:24.023Z,54.72
2022-11-18T09:16:44.356Z,56.04
2022-11-18T09:19:40.194Z,57.83
2022-11-18T09:21:59.953Z,59.98
2022-11-18T09:24:28.212Z,62.74
2022-11-18T09:26:55.956Z,65.90
2022-11-18T09:29:26.225Z,63.15
2022-11-18T09:31:54.678Z,61.67
2022-11-18T09:34:23.332Z,55.98
2022-11-18T09:36:51.477Z,53.24
2022-11-18T09:39:19.567Z,54.25
2022-11-18T09:41:48.510Z,56.95
2022-11-18T09:44:31.390Z,57.36
2022-11-18T09:47:11.922Z,57.62
2022-11-18T09:49:42.453Z,59.01
2022-11-18T09:52:12.883Z,61.13
2022-11-18T09:54:40.865Z,62.49
2022-11-18T09:57:21.210Z,67.66
2022-11-18T09:59:49.001Z,65.18
2022-11-18T10:02:28.026Z,61.02
2022-11-18T10:05:01.637Z,58.87
2022-11-18T10:07:45.099Z,54.40
2022-11-18T10:10:19.723Z,52.68
2022-11-18T10:12:55.673Z,54.46
2022-11-18T10:15:32.960Z,57.11
2022-11-18T10:18:59.272Z,56.78
2022-11-18T10:21:45.519Z,60.58
2022-11-18T10:24:18.997Z,62.04
2022-11-18T10:26:47.234Z,63.94
2022-11-18T10:29:14.943Z,63.81
2022-11-18T10:32:16.438Z,59.31
2022-11-18T10:34:56.041Z,52.82
2022-11-18T10:38:05.771Z,53.13
2022-11-18T10:40:25.719Z,55.75
2022-11-18T10:42:54.265Z,57.42
2022-11-18T10:45:26.910Z,58.86
2022-11-18T10:48:21.018Z,59.89
2022-11-18T10:50:55.035Z,59.56
2022-11-18T10:53:35.106Z,61.03
2022-11-18T10:56:08.459Z,62.45
2022-11-18T10:58:42.227Z,65.97
2022-11-18T11:01:27.201Z,65.16
2022-11-18T11:04:01.296Z,58.20
2022-11-18T11:06:38.117Z,53.62
2022-11-18T11:09:25.318Z,52.34
2022-11-18T11:11:57.709Z,54.04
2022-11-18T11:14:47.117Z,55.56
2022-11-18T11:17:29.988Z,56.55
2022-11-18T11:20:04.276Z,58.76
2022-11-18T11:22:32.117Z,59.85
2022-11-18T11:24:59.779Z,59.65
2022-11-18T11:30:38.753Z,62.89
2022-11-18T11:33:36.800Z,64.74
2022-11-18T11:36:41.138Z,62.10
2022-11-18T11:39:34.939Z,53.57
2022-11-18T11:42:28.620Z,51.47
2022-11-18T11:44:56.227Z,51.07
2022-11-18T11:47:50.079Z,51.71
2022-11-18T11:51:03.859Z,56.17
2022-11-18T11:54:04.352Z,56.30
2022-11-18T11:56:41.034Z,56.51
2022-11-18T11:59:19.725Z,56.15
2022-11-18T12:02:09.373Z,56.75
2022-11-18T12:04:50.008Z,58.67
2022-11-18T12:07:23.935Z,59.62
2022-11-18T12:10:16.266Z,60.54
2022-11-18T12:13:08.738Z,61.49
2022-11-18T12:15:45.620Z,66.70
2022-11-18T12:18:42.423Z,64.29
2022-11-18T12:21:45.545Z,57.16
2022-11-18T12:24:32.929Z,52.72
2022-11-18T12:27:13.449Z,51.60
2022-11-18T12:30:03.749Z,52.00
2022-11-18T12:32:42.848Z,52.13
2022-11-18T12:35:13.805Z,53.87
2022-11-18T12:37:57.580Z,54.78
2022-11-18T12:40:39.187Z,56.06
2022-11-18T12:43:47.556Z,57.29
2022-11-18T12:46:40.116Z,57.42
2022-11-18T12:49:21.104Z,57.09
2022-11-18T12:51:49.786Z,59.47
2022-11-18T12:54:26.240Z,60.87
2022-11-18T12:56:55.854Z,61.71
2022-11-18T12:59:33.013Z,64.37
2022-11-18T13:02:05.809Z,64.43
2022-11-18T13:04:33.676Z,61.36
2022-11-18T13:07:03.119Z,57.95
2022-11-18T13:09:34.260Z,54.44
2022-11-18T13:12:08.713Z,53.70
2022-11-18T13:14:59.539Z,55.42
2022-11-18T13:18:06.055Z,56.59
2022-11-18T13:20:36.128Z,57.54
2022-11-18T13:23:28.642Z,58.45
2022-11-18T13:26:27.112Z,58.63
2022-11-18T13:29:32.109Z,59.70
2022-11-18T13:32:18.379Z,59.54
2022-11-18T13:34:52.378Z,60.75
2022-11-18T13:37:24.417Z,60.70
2022-11-18T13:39:53.105Z,60.99
2022-11-18T13:42:29.661Z,61.15
2022-11-18T13:44:59.425Z,62.23
2022-11-18T13:47:40.489Z,64.95
2022-11-18T13:50:11.237Z,63.09
2022-11-18T13:52:48.265Z,60.77
2022-11-18T13:55:22.694Z,56.67
2022-11-18T13:58:00.618Z,53.25
2022-11-18T14:00:30.580Z,53.85
2022-11-18T14:03:02.372Z,54.99
2022-11-18T14:05:30.429Z,55.94
2022-11-18T14:08:05.279Z,56.15
2022-11-18T14:10:42.802Z,57.64
2022-11-18T14:13:17.427Z,59.08
2022-11-18T14:15:45.484Z,59.87
2022-11-18T14:18:28.377Z,60.22
2022-11-18T14:20:56.245Z,60.11
2022-11-18T14:23:33.750Z,60.87
2022-11-18T14:26:04.599Z,60.68
2022-11-18T14:28:36.700Z,61.70
2022-11-18T14:31:24.353Z,66.72
2022-11-18T14:34:26.881Z,68.84
2022-11-18T14:36:55.824Z,57.82
2022-11-18T14:39:32.051Z,49.78
2022-11-18T14:42:00.218Z,48.82
2022-11-18T14:44:28.614Z,51.07
2022-11-18T14:47:03.075Z,52.89
2022-11-18T14:49:32.700Z,54.89
2022-11-18T14:52:04.554Z,56.76
2022-11-18T14:54:32.487Z,57.82
2022-11-18T14:57:03.040Z,58.01
2022-11-18T14:59:31.408Z,60.06
2022-11-18T15:01:59.484Z,60.90
2022-11-18T15:04:27.785Z,61.64
2022-11-18T15:06:56.322Z,61.93
2022-11-18T15:09:24.674Z,65.05
2022-11-18T15:11:52.347Z,69.82
2022-11-18T15:14:20.620Z,62.81
2022-11-18T15:16:48.737Z,55.74
2022-11-18T15:19:16.760Z,50.76
2022-11-18T15:21:45.525Z,50.64
2022-11-18T15:24:13.797Z,51.04
2022-11-18T15:26:44.665Z,52.25
2022-11-18T15:29:21.120Z,53.50
2022-11-18T15:31:49.293Z,54.12
2022-11-18T15:34:20.056Z,56.87
2022-11-18T15:36:48.424Z,57.51
2022-11-18T15:39:16.068Z,58.00
2022-11-18T15:41:44.541Z,59.29
2022-11-18T15:44:12.422Z,61.14
2022-11-18T15:46:40.319Z,61.21
2022-11-18T15:49:13.557Z,61.20
2022-11-18T15:51:41.537Z,61.55
2022-11-18T15:54:09.290Z,64.80
2022-11-18T15:56:37.876Z,68.51
2022-11-18T15:59:17.132Z,64.02
2022-11-18T16:01:48.901Z,54.76
2022-11-18T16:04:19.381Z,52.06
2022-11-18T16:06:47.402Z,52.15
2022-11-18T16:09:17.256Z,53.21
2022-11-18T16:12:03.601Z,54.57
2022-11-18T16:14:31.382Z,56.05
2022-11-18T16:16:59.240Z,58.52
2022-11-18T16:19:27.253Z,59.48
2022-11-18T16:21:57.217Z,61.12
2022-11-18T16:24:28.550Z,64.72
2022-11-18T16:26:57.031Z,68.11
2022-11-18T16:29:25.166Z,60.90
2022-11-18T16:31:54.453Z,56.84
2022-11-18T16:34:25.128Z,54.15
2022-11-18T16:36:55.944Z,54.31
2022-11-18T16:39:26.098Z,56.47
2022-11-18T16:42:06.893Z,57.39
2022-11-18T16:44:36.044Z,57.87
2022-11-18T16:47:07.721Z,59.42
2022-11-18T16:49:40.334Z,61.18
2022-11-18T16:52:08.816Z,61.26
2022-11-18T16:54:42.892Z,62.18
2022-11-18T16:57:13.354Z,65.78
2022-11-18T16:59:41.090Z,67.72
2022-11-18T17:02:12.398Z,65.17
2022-11-18T17:04:40.241Z,58.43
2022-11-18T17:07:08.190Z,52.81
2022-11-18T17:09:36.120Z,53.09
2022-11-18T17:12:04.301Z,54.96
2022-11-18T17:14:32.014Z,57.37
2022-11-18T17:16:59.983Z,57.16
2022-11-18T17:19:27.748Z,58.03
2022-11-18T17:21:55.606Z,59.28
2022-11-18T17:24:24.070Z,60.32
2022-11-18T17:26:52.211Z,61.61
2022-11-18T17:29:20.678Z,68.14
2022-11-18T17:31:49.347Z,68.60
2022-11-18T17:34:17.544Z,62.23
2022-11-18T17:36:45.748Z,56.73
2022-11-18T17:39:13.619Z,53.86
2022-11-18T17:42:00.038Z,53.25
2022-11-18T17:44:29.493Z,54.42
2022-11-18T17:46:57.280Z,57.11
2022-11-18T17:49:25.032Z,59.63
2022-11-18T17:51:52.735Z,60.70
2022-11-18T17:54:21.593Z,61.46
2022-11-18T17:56:52.231Z,67.66
2022-11-18T17:59:21.143Z,66.88
2022-11-18T18:01:54.370Z,60.39
2022-11-18T18:04:26.836Z,52.92
2022-11-18T18:06:55.116Z,49.38
2022-11-18T18:09:26.971Z,50.00
2022-11-18T18:11:59.857Z,51.50
2022-11-18T18:14:28.943Z,52.77
2022-11-18T18:16:56.597Z,54.83
2022-11-18T18:19:24.686Z,55.96
2022-11-18T18:21:53.397Z,56.92
2022-11-18T18:24:21.966Z,57.49
2022-11-18T18:26:50.028Z,58.97
2022-11-18T18:29:17.736Z,59.38
2022-11-18T18:31:45.419Z,60.31
2022-11-18T18:34:13.233Z,61.25
2022-11-18T18:36:43.216Z,62.38
2022-11-18T18:39:11.106Z,68.82
2022-11-18T18:41:38.828Z,70.16
2022-11-18T18:44:06.607Z,62.23
2022-11-18T18:46:36.892Z,52.18
2022-11-18T18:49:08.061Z,49.11
2022-11-18T18:51:37.260Z,49.80
2022-11-18T18:54:07.329Z,51.15
2022-11-18T18:56:35.031Z,52.70
2022-11-18T18:59:03.143Z,53.73
2022-11-18T19:01:31.745Z,55.28
2022-11-18T19:04:02.108Z,57.37
2022-11-18T19:09:26.018Z,57.84
2022-11-18T19:12:14.714Z,58.18
2022-11-18T19:14:42.506Z,59.08
2022-11-18T19:17:12.347Z,61.05
2022-11-18T19:20:00.894Z,68.32
2022-11-18T19:22:30.983Z,68.44
2022-11-18T19:24:59.771Z,63.61
2022-11-18T19:27:28.569Z,61.51
2022-11-18T19:29:56.252Z,53.88
2022-11-18T19:32:24.030Z,51.43
2022-11-18T19:34:51.794Z,52.22
2022-11-18T19:37:19.580Z,53.13
2022-11-18T19:39:47.274Z,55.17
2022-11-18T19:42:16.625Z,55.09
2022-11-18T19:44:47.317Z,55.85
2022-11-18T19:47:15.237Z,57.56
2022-11-18T19:49:43.009Z,59.83
2022-11-18T19:52:11.079Z,61.17
2022-11-18T19:54:42.083Z,63.36
2022-11-18T19:57:09.804Z,66.98
2022-11-18T19:59:37.795Z,65.56
2022-11-18T20:02:06.353Z,61.41
2022-11-18T20:04:34.083Z,55.82
2022-11-18T20:07:01.800Z,51.65
2022-11-18T20:09:30.245Z,50.60
2022-11-18T20:11:58.024Z,51.84
2022-11-18T20:14:25.742Z,52.43
2022-11-18T20:16:53.385Z,52.96
2022-11-18T20:19:21.556Z,55.31
2022-11-18T20:21:49.543Z,57.63
2022-11-18T20:24:19.285Z,59.54
2022-11-18T20:26:47.453Z,60.06
2022-11-18T20:29:15.206Z,60.49
2022-11-18T20:31:42.903Z,60.38
2022-11-18T20:34:14.478Z,61.88
2022-11-18T20:36:43.014Z,62.63
2022-11-18T20:39:14.628Z,68.19
2022-11-18T20:41:43.656Z,66.44
2022-11-18T20:44:12.418Z,60.89
2022-11-18T20:46:40.237Z,54.54
2022-11-18T20:49:07.995Z,51.44
2022-11-18T20:51:35.807Z,51.59
2022-11-18T20:54:08.180Z,51.57
2022-11-18T20:56:35.847Z,52.04
2022-11-18T20:59:03.534Z,52.73
2022-11-18T21:01:32.617Z,53.31
2022-11-18T21:04:01.832Z,54.03
2022-11-18T21:06:31.483Z,55.92
2022-11-18T21:09:02.658Z,56.61
2022-11-18T21:11:34.883Z,57.12
2022-11-18T21:14:24.047Z,57.24
2022-11-18T21:16:55.454Z,58.72
2022-11-18T21:19:24.001Z,59.21
2022-11-18T21:21:52.885Z,60.64
2022-11-18T21:24:29.419Z,64.95
2022-11-18T21:26:58.324Z,68.31
2022-11-18T21:29:28.237Z,64.20
2022-11-18T21:31:57.868Z,60.24
2022-11-18T21:34:25.650Z,55.93
2022-11-18T21:36:55.112Z,53.08
2022-11-18T21:39:24.384Z,53.09
2022-11-18T21:41:56.120Z,53.68
2022-11-18T21:44:27.939Z,56.51
2022-11-18T21:46:57.142Z,56.42
2022-11-18T21:49:24.858Z,57.85
2022-11-18T21:51:52.626Z,59.34
2022-11-18T21:54:20.378Z,59.58
2022-11-18T21:56:48.154Z,60.99
2022-11-18T21:59:15.980Z,61.26
2022-11-18T22:01:43.749Z,60.91
2022-11-18T22:04:31.408Z,61.29
2022-11-18T22:06:59.274Z,65.53
2022-11-18T22:09:31.421Z,68.10
2022-11-18T22:12:02.649Z,64.41
2022-11-18T22:14:30.338Z,59.72
2022-11-18T22:16:58.058Z,53.09
2022-11-18T22:19:25.781Z,52.28
2022-11-18T22:21:53.426Z,52.93
2022-11-18T22:24:21.168Z,54.89
2022-11-18T22:26:48.846Z,55.97
2022-11-18T22:29:16.797Z,58.65
2022-11-18T22:31:44.645Z,58.45
2022-11-18T22:34:12.333Z,59.81
2022-11-18T22:36:40.174Z,61.47
2022-11-18T22:39:07.827Z,62.54
2022-11-18T22:41:54.114Z,69.21
2022-11-18T22:44:21.751Z,63.98
2022-11-18T22:46:49.390Z,54.65
2022-11-18T22:49:17.594Z,51.52
2022-11-18T22:51:45.553Z,52.11
2022-11-18T22:57:00.827Z,54.03
2022-11-18T22:59:28.464Z,54.62
2022-11-18T23:01:56.138Z,56.37
2022-11-18T23:04:23.948Z,56.78
2022-11-18T23:06:51.579Z,58.86
2022-11-18T23:09:19.523Z,58.80
2022-11-18T23:12:06.241Z,60.09
2022-11-18T23:14:34.140Z,59.61
2022-11-18T23:17:01.833Z,59.33
2022-11-18T23:19:29.527Z,59.62
2022-11-18T23:21:57.247Z,59.88
2022-11-18T23:24:25.478Z,60.14
2022-11-18T23:26:53.243Z,60.59
2022-11-18T23:29:21.385Z,61.99
2022-11-18T23:31:49.369Z,65.64
2022-11-18T23:34:17.110Z,71.71
2022-11-18T23:36:44.741Z,63.38
2022-11-18T23:39:13.417Z,53.43
2022-11-18T23:41:41.211Z,49.51
2022-11-18T23:44:08.921Z,49.52
2022-11-18T23:46:36.561Z,50.29
2022-11-18T23:49:08.788Z,51.32
2022-11-18T23:51:36.555Z,52.18
2022-11-18T23:54:04.396Z,53.06
